createdAt,value
2022-08-26T00:01:10.612Z,8.77
2022-08-26T00:03:38.749Z,8.15
2022-08-26T00:06:06.129Z,8.43
2022-08-26T00:08:35.453Z,8.57
2022-08-26T00:11:05.426Z,8.27
2022-08-26T00:13:33.307Z,7.82
2022-08-26T00:16:00.228Z,8.25
2022-08-26T00:18:27.120Z,8.50
2022-08-26T00:20:58.970Z,8.48
2022-08-26T00:23:25.851Z,8.73
2022-08-26T00:25:55.588Z,8.02
2022-08-26T00:28:23.755Z,8.43
2022-08-26T00:30:51.706Z,7.85
2022-08-26T00:33:20.479Z,8.80
2022-08-26T00:35:47.651Z,8.13
2022-08-26T00:38:15.897Z,8.48
2022-08-26T00:40:45.912Z,8.95
2022-08-26T00:43:12.669Z,8.10
2022-08-26T00:45:43.958Z,8.25
2022-08-26T00:48:12.454Z,7.45
2022-08-26T00:50:45.603Z,7.83
2022-08-26T00:53:12.993Z,7.90
2022-08-26T00:55:41.614Z,8.48
2022-08-26T00:58:09.680Z,8.40
2022-08-26T01:00:36.549Z,8.35
2022-08-26T01:03:05.275Z,8.68
2022-08-26T01:05:34.187Z,7.95
2022-08-26T01:08:01.118Z,8.23
2022-08-26T01:13:01.896Z,8.30
2022-08-26T01:15:35.521Z,8.32
2022-08-26T01:18:04.390Z,8.18
2022-08-26T01:20:41.367Z,7.95
2022-08-26T01:23:11.124Z,7.95
2022-08-26T01:25:43.040Z,8.52
2022-08-26T01:28:14.027Z,7.75
2022-08-26T01:30:41.924Z,7.63
2022-08-26T01:33:12.866Z,7.90
2022-08-26T01:35:40.252Z,7.80
2022-08-26T01:38:06.984Z,7.53
2022-08-26T01:40:38.590Z,7.78
2022-08-26T01:43:08.553Z,7.82
2022-08-26T01:45:39.433Z,7.68
2022-08-26T01:48:10.329Z,8.20
2022-08-26T01:50:38.300Z,8.05
2022-08-26T01:53:09.185Z,8.07
2022-08-26T01:55:41.702Z,7.93
2022-08-26T01:58:15.411Z,7.40
2022-08-26T02:00:42.472Z,7.72
2022-08-26T02:03:11.574Z,6.93
2022-08-26T02:05:40.320Z,7.90
2022-08-26T02:08:10.641Z,7.82
2022-08-26T02:10:38.739Z,7.47
2022-08-26T02:13:08.814Z,7.30
2022-08-26T02:15:36.025Z,7.45
2022-08-26T02:18:04.900Z,7.32
2022-08-26T02:20:32.079Z,7.03
2022-08-26T02:22:58.910Z,7.88
2022-08-26T02:25:30.653Z,7.00
2022-08-26T02:27:58.990Z,7.43
2022-08-26T02:30:27.434Z,7.18
2022-08-26T02:32:55.294Z,7.32
2022-08-26T02:35:23.909Z,7.15
2022-08-26T02:37:52.862Z,7.20
2022-08-26T02:40:23.532Z,8.17
2022-08-26T02:42:52.789Z,7.90
2022-08-26T02:45:23.282Z,7.78
2022-08-26T02:47:51.373Z,8.00
2022-08-26T02:50:19.145Z,7.30
2022-08-26T02:52:45.946Z,7.50
2022-08-26T02:55:12.883Z,8.20
2022-08-26T02:57:39.536Z,7.97
2022-08-26T03:00:09.791Z,8.80
2022-08-26T03:02:37.895Z,8.77
2022-08-26T03:05:05.772Z,8.45
2022-08-26T03:07:32.513Z,8.73
2022-08-26T03:09:59.233Z,8.60
2022-08-26T03:12:26.098Z,8.48
2022-08-26T03:14:53.057Z,8.50
2022-08-26T03:17:19.875Z,8.85
2022-08-26T03:19:51.726Z,8.15
2022-08-26T03:22:21.221Z,7.97
2022-08-26T03:24:48.008Z,7.97
2022-08-26T03:27:15.739Z,8.57
2022-08-26T03:29:44.326Z,8.48
2022-08-26T03:32:16.352Z,8.63
2022-08-26T03:34:43.214Z,8.63
2022-08-26T03:37:11.363Z,8.73
2022-08-26T03:39:37.995Z,8.43
2022-08-26T03:42:05.288Z,8.70
2022-08-26T03:44:32.887Z,8.45
2022-08-26T03:46:59.575Z,9.35
2022-08-26T03:49:28.868Z,8.63
2022-08-26T03:51:55.857Z,9.48
2022-08-26T03:54:23.907Z,9.00
2022-08-26T03:56:50.611Z,8.93
2022-08-26T03:59:17.381Z,8.88
2022-08-26T04:01:44.454Z,9.27
2022-08-26T04:04:12.462Z,8.93
2022-08-26T04:06:42.859Z,8.60
2022-08-26T04:09:14.625Z,8.98
2022-08-26T04:11:44.473Z,9.38
2022-08-26T04:14:13.577Z,9.40
2022-08-26T04:16:40.436Z,8.80
2022-08-26T04:19:07.475Z,9.02
2022-08-26T04:21:34.621Z,9.90
2022-08-26T04:24:03.577Z,9.48
2022-08-26T04:29:01.210Z,9.10
2022-08-26T04:31:28.006Z,8.95
2022-08-26T04:33:58.711Z,9.10
2022-08-26T04:36:25.437Z,9.13
2022-08-26T04:38:52.270Z,9.23
2022-08-26T04:41:20.934Z,9.43
2022-08-26T04:43:48.429Z,9.27
2022-08-26T04:46:19.881Z,8.65
2022-08-26T04:48:46.607Z,9.15
2022-08-26T04:51:13.341Z,8.93
2022-08-26T04:53:40.236Z,8.82
2022-08-26T04:56:07.488Z,9.13
2022-08-26T04:58:35.344Z,8.40
2022-08-26T05:01:02.258Z,8.63
2022-08-26T05:03:31.212Z,8.13
2022-08-26T05:05:58.424Z,8.75
2022-08-26T05:08:25.580Z,8.18
2022-08-26T05:10:54.659Z,8.95
2022-08-26T05:13:24.393Z,8.70
2022-08-26T05:15:51.893Z,9.02
2022-08-26T05:18:21.352Z,8.63
2022-08-26T05:20:54.482Z,8.52
2022-08-26T05:23:22.910Z,9.02
2022-08-26T05:25:55.844Z,8.32
2022-08-26T05:28:25.664Z,8.75
2022-08-26T05:30:52.454Z,8.32
2022-08-26T05:33:19.765Z,8.50
2022-08-26T05:35:47.158Z,8.32
2022-08-26T05:38:20.829Z,7.90
2022-08-26T05:40:52.792Z,8.07
2022-08-26T05:43:20.240Z,8.20
2022-08-26T05:45:49.572Z,8.18
2022-08-26T05:48:18.750Z,8.70
2022-08-26T05:50:52.183Z,8.77
2022-08-26T05:55:49.512Z,8.57
2022-08-26T05:58:18.323Z,7.67
2022-08-26T06:00:44.970Z,8.05
2022-08-26T06:03:11.759Z,7.78
2022-08-26T06:05:39.261Z,8.05
2022-08-26T06:08:07.036Z,8.27
2022-08-26T06:10:35.487Z,8.05
2022-08-26T06:13:11.479Z,8.32
2022-08-26T06:15:43.487Z,7.90
2022-08-26T06:18:12.241Z,7.75
2022-08-26T06:20:38.930Z,7.53
2022-08-26T06:23:06.131Z,7.88
2022-08-26T06:25:37.468Z,8.07
2022-08-26T06:28:06.725Z,7.55
2022-08-26T06:33:01.419Z,7.35
2022-08-26T06:35:28.546Z,7.75
2022-08-26T06:37:55.510Z,7.53
2022-08-26T06:40:22.508Z,7.30
2022-08-26T06:42:49.544Z,7.47
2022-08-26T06:45:17.795Z,6.90
2022-08-26T06:47:44.606Z,7.55
2022-08-26T06:50:17.506Z,7.18
2022-08-26T06:52:44.955Z,6.65
2022-08-26T06:55:11.884Z,6.80
2022-08-26T06:57:39.725Z,6.93
2022-08-26T07:00:10.435Z,6.97
2022-08-26T07:02:39.324Z,7.22
2022-08-26T07:05:07.413Z,6.88
2022-08-26T07:07:35.089Z,6.70
2022-08-26T07:10:04.467Z,7.00
2022-08-26T07:12:36.157Z,7.25
2022-08-26T07:15:03.149Z,6.85
2022-08-26T07:17:30.015Z,6.88
2022-08-26T07:19:58.673Z,6.47
2022-08-26T07:22:26.174Z,6.65
2022-08-26T07:24:52.887Z,6.47
2022-08-26T07:27:19.798Z,6.97
2022-08-26T07:29:47.708Z,6.63
2022-08-26T07:32:16.795Z,5.82
2022-08-26T07:34:45.345Z,6.30
2022-08-26T07:37:13.507Z,6.13
2022-08-26T07:39:41.046Z,6.60
2022-08-26T07:42:10.010Z,6.25
2022-08-26T07:44:37.414Z,6.10
2022-08-26T07:47:10.504Z,5.63
2022-08-26T07:49:52.762Z,6.25
2022-08-26T07:52:25.541Z,6.03
2022-08-26T07:54:53.264Z,5.45
2022-08-26T07:57:19.971Z,5.97
2022-08-26T07:59:47.687Z,5.72
2022-08-26T08:02:14.436Z,5.25
2022-08-26T08:04:41.411Z,5.00
2022-08-26T08:07:11.531Z,5.50
2022-08-26T08:09:40.756Z,4.63
2022-08-26T08:12:08.221Z,4.80
2022-08-26T08:14:40.998Z,5.25
2022-08-26T08:17:08.691Z,4.97
2022-08-26T08:19:36.867Z,4.95
2022-08-26T08:22:13.325Z,6.70
2022-08-26T08:24:45.736Z,5.70
2022-08-26T08:27:18.134Z,6.90
2022-08-26T08:29:48.174Z,8.40
2022-08-26T08:32:15.642Z,4.80
2022-08-26T08:37:15.810Z,4.85
2022-08-26T08:39:42.806Z,10.23
2022-08-26T08:42:33.021Z,6.97
2022-08-26T08:45:05.073Z,4.97
2022-08-26T08:47:36.361Z,5.35
2022-08-26T08:50:11.557Z,4.75
2022-08-26T08:52:41.269Z,4.30
2022-08-26T08:55:11.858Z,5.03
2022-08-26T08:57:55.830Z,4.85
2022-08-26T09:00:39.667Z,4.40
2022-08-26T09:03:17.037Z,5.88
2022-08-26T09:05:48.710Z,5.30
2022-08-26T09:08:19.876Z,4.72
2022-08-26T09:10:51.706Z,4.43
2022-08-26T09:13:25.293Z,3.55
2022-08-26T09:16:03.433Z,4.32
2022-08-26T09:18:47.596Z,4.20
2022-08-26T09:21:16.762Z,4.72
2022-08-26T09:23:49.343Z,4.50
2022-08-26T09:26:20.227Z,4.80
2022-08-26T09:28:54.704Z,4.43
2022-08-26T09:31:24.457Z,4.40
2022-08-26T09:34:06.442Z,4.88
2022-08-26T09:36:41.039Z,4.20
2022-08-26T09:39:26.665Z,4.00
2022-08-26T09:42:07.473Z,3.92
2022-08-26T09:44:51.488Z,4.10
2022-08-26T09:47:23.240Z,4.20
2022-08-26T09:49:58.944Z,4.43
2022-08-26T09:52:25.700Z,4.70
2022-08-26T09:55:03.544Z,4.70
2022-08-26T09:57:32.527Z,4.25
2022-08-26T10:00:01.057Z,4.43
2022-08-26T10:02:38.306Z,4.85
2022-08-26T10:05:09.926Z,4.65
2022-08-26T10:07:41.062Z,4.30
2022-08-26T10:10:13.378Z,4.90
2022-08-26T10:12:49.344Z,4.78
2022-08-26T10:15:19.071Z,4.28
2022-08-26T10:17:55.401Z,4.03
2022-08-26T10:20:26.418Z,4.88
2022-08-26T10:22:59.332Z,4.20
2022-08-26T10:25:31.623Z,5.38
2022-08-26T10:28:05.884Z,5.28
2022-08-26T10:30:40.515Z,6.82
2022-08-26T10:33:12.072Z,5.47
2022-08-26T10:35:52.523Z,4.53
2022-08-26T10:38:24.099Z,4.15
2022-08-26T10:40:58.923Z,12.38
2022-08-26T10:43:30.617Z,7.30
2022-08-26T10:46:03.058Z,6.53
2022-08-26T10:48:38.933Z,8.63
2022-08-26T10:51:06.605Z,4.90
2022-08-26T10:53:45.656Z,6.90
2022-08-26T10:56:24.765Z,6.63
2022-08-26T10:59:01.154Z,7.68
2022-08-26T11:01:34.527Z,5.18
2022-08-26T11:04:16.806Z,5.53
2022-08-26T11:06:43.734Z,4.68
2022-08-26T11:09:10.415Z,5.38
2022-08-26T11:11:49.221Z,6.65
2022-08-26T11:14:42.061Z,4.40
2022-08-26T11:18:00.279Z,6.07
2022-08-26T11:20:41.526Z,5.40
2022-08-26T11:23:38.008Z,4.85
2022-08-26T11:26:20.410Z,5.20
2022-08-26T11:29:03.274Z,4.57
2022-08-26T11:31:53.016Z,4.70
2022-08-26T11:34:56.371Z,8.95
2022-08-26T11:37:32.421Z,5.20
2022-08-26T11:40:01.364Z,4.22
2022-08-26T11:42:36.407Z,5.18
2022-08-26T11:45:18.065Z,5.10
2022-08-26T11:47:45.311Z,6.50
2022-08-26T11:50:17.281Z,4.10
2022-08-26T11:52:52.754Z,4.78
2022-08-26T11:55:20.638Z,3.75
2022-08-26T11:57:53.408Z,4.15
2022-08-26T12:00:33.308Z,6.50
2022-08-26T12:03:05.128Z,4.18
2022-08-26T12:05:38.278Z,4.07
2022-08-26T12:08:09.887Z,4.13
2022-08-26T12:10:37.247Z,3.97
2022-08-26T12:13:05.576Z,3.60
2022-08-26T12:15:33.917Z,5.22
2022-08-26T12:18:20.688Z,4.15
2022-08-26T12:20:59.881Z,3.88
2022-08-26T12:23:36.414Z,3.67
2022-08-26T12:26:08.186Z,5.30
2022-08-26T12:28:43.760Z,4.43
2022-08-26T12:31:10.707Z,3.60
2022-08-26T12:33:37.854Z,6.93
2022-08-26T12:36:06.477Z,3.90
2022-08-26T12:38:35.882Z,3.97
2022-08-26T12:41:02.663Z,4.95
2022-08-26T12:43:43.387Z,5.22
2022-08-26T12:46:12.591Z,6.13
2022-08-26T12:48:42.483Z,3.90
2022-08-26T12:51:24.234Z,6.03
2022-08-26T12:53:51.918Z,4.63
2022-08-26T12:56:25.126Z,3.55
2022-08-26T12:59:19.389Z,8.98
2022-08-26T13:01:46.493Z,7.78
2022-08-26T13:04:34.104Z,4.38
2022-08-26T13:07:22.598Z,4.93
2022-08-26T13:09:50.483Z,4.47
2022-08-26T13:12:25.113Z,4.10
2022-08-26T13:14:51.889Z,3.17
2022-08-26T13:17:18.656Z,3.63
2022-08-26T13:19:45.502Z,3.10
2022-08-26T13:22:13.493Z,3.92
2022-08-26T13:24:43.325Z,5.10
2022-08-26T13:27:13.015Z,5.25
2022-08-26T13:29:40.381Z,3.78
2022-08-26T13:32:08.790Z,3.20
2022-08-26T13:34:38.063Z,3.15
2022-08-26T13:39:51.272Z,7.82
2022-08-26T13:42:17.949Z,12.32
2022-08-26T13:44:44.935Z,8.15
2022-08-26T13:47:11.699Z,15.52
2022-08-26T13:49:38.472Z,5.00
2022-08-26T13:52:05.218Z,5.07
2022-08-26T13:54:31.987Z,6.50
2022-08-26T13:57:00.106Z,7.15
2022-08-26T13:59:26.805Z,4.82
2022-08-26T14:01:53.807Z,3.97
2022-08-26T14:04:27.194Z,3.63
2022-08-26T14:06:54.248Z,3.17
2022-08-26T14:09:20.998Z,3.53
2022-08-26T14:11:54.024Z,3.97
2022-08-26T14:14:23.366Z,3.88
2022-08-26T14:16:58.938Z,4.47
2022-08-26T14:19:26.794Z,4.00
2022-08-26T14:21:53.544Z,6.18
2022-08-26T14:24:20.409Z,5.43
2022-08-26T14:26:47.237Z,3.85
2022-08-26T14:29:16.197Z,3.97
2022-08-26T14:31:45.073Z,3.88
2022-08-26T14:34:13.800Z,3.70
2022-08-26T14:36:40.728Z,3.22
2022-08-26T14:39:10.777Z,3.63
2022-08-26T14:41:44.463Z,5.43
2022-08-26T14:44:15.091Z,5.03
2022-08-26T14:46:46.131Z,6.18
2022-08-26T14:49:15.738Z,3.58
2022-08-26T14:51:44.091Z,3.85
2022-08-26T14:54:17.872Z,3.53
2022-08-26T14:56:56.662Z,3.38
2022-08-26T15:02:37.805Z,3.30
2022-08-26T15:05:05.707Z,5.10
2022-08-26T15:07:46.173Z,5.32
2022-08-26T15:10:15.425Z,6.22
2022-08-26T15:12:45.827Z,4.47
2022-08-26T15:15:14.601Z,3.47
2022-08-26T15:20:12.323Z,3.25
2022-08-26T15:22:43.015Z,3.65
2022-08-26T15:25:10.789Z,4.00
2022-08-26T15:27:38.235Z,4.30
2022-08-26T15:30:07.976Z,4.15
2022-08-26T15:32:35.320Z,2.95
2022-08-26T15:35:08.680Z,3.50
2022-08-26T15:37:36.187Z,3.80
2022-08-26T15:40:04.433Z,3.13
2022-08-26T15:42:31.259Z,3.33
2022-08-26T15:45:00.365Z,2.90
2022-08-26T15:47:27.135Z,3.40
2022-08-26T15:49:59.296Z,3.22
2022-08-26T15:52:37.683Z,3.00
2022-08-26T15:55:08.694Z,3.00
2022-08-26T15:57:35.484Z,4.07
2022-08-26T16:00:04.736Z,4.13
2022-08-26T16:02:32.429Z,4.47
2022-08-26T16:04:59.397Z,3.45
2022-08-26T16:07:26.628Z,3.30
2022-08-26T16:09:54.716Z,4.93
2022-08-26T16:12:22.485Z,6.32
2022-08-26T16:14:49.230Z,6.68
2022-08-26T16:17:21.557Z,4.40
2022-08-26T16:22:14.793Z,3.80
2022-08-26T16:24:41.636Z,4.00
2022-08-26T16:27:09.823Z,3.55
2022-08-26T16:29:37.948Z,2.95
2022-08-26T16:32:04.887Z,3.50
2022-08-26T16:34:34.621Z,3.75
2022-08-26T16:37:03.194Z,3.28
2022-08-26T16:39:34.413Z,3.35
2022-08-26T16:45:13.923Z,3.45
2022-08-26T16:50:13.862Z,3.30
2022-08-26T16:52:45.634Z,2.90
2022-08-26T16:55:24.483Z,3.03
2022-08-26T16:58:04.135Z,3.28
2022-08-26T17:00:38.514Z,3.20
2022-08-26T17:03:14.523Z,2.97
2022-08-26T17:05:51.652Z,3.03
2022-08-26T17:08:28.690Z,3.50
2022-08-26T17:11:00.465Z,3.50
2022-08-26T17:13:35.125Z,3.30
2022-08-26T17:16:08.999Z,3.22
2022-08-26T17:18:37.900Z,3.05
2022-08-26T17:23:43.634Z,3.50
2022-08-26T17:26:21.686Z,3.33
2022-08-26T17:28:52.203Z,2.80
2022-08-26T17:31:23.891Z,3.35
2022-08-26T17:33:54.375Z,2.88
2022-08-26T17:36:22.150Z,3.30
2022-08-26T17:38:49.290Z,3.40
2022-08-26T17:41:22.205Z,3.38
2022-08-26T17:43:55.058Z,3.53
2022-08-26T17:46:23.987Z,3.50
2022-08-26T17:51:20.207Z,3.53
2022-08-26T17:53:47.760Z,3.38
2022-08-26T17:56:16.897Z,3.47
2022-08-26T17:58:51.096Z,3.50
2022-08-26T18:01:19.732Z,3.60
2022-08-26T18:03:48.497Z,2.93
2022-08-26T18:06:15.278Z,3.58
2022-08-26T18:08:42.354Z,4.00
2022-08-26T18:11:17.888Z,3.60
2022-08-26T18:13:47.841Z,3.40
2022-08-26T18:16:15.625Z,4.00
2022-08-26T18:18:51.470Z,4.00
2022-08-26T18:21:20.354Z,4.18
2022-08-26T18:23:57.663Z,3.80
2022-08-26T18:26:31.684Z,3.65
2022-08-26T18:29:07.890Z,4.10
2022-08-26T18:31:44.556Z,3.92
2022-08-26T18:34:21.787Z,3.95
2022-08-26T18:36:57.322Z,4.30
2022-08-26T18:39:24.600Z,4.20
2022-08-26T18:41:53.472Z,4.18
2022-08-26T18:44:21.212Z,4.07
2022-08-26T18:46:48.247Z,3.67
2022-08-26T18:49:18.357Z,4.35
2022-08-26T18:51:45.793Z,4.15
2022-08-26T18:54:13.079Z,4.43
2022-08-26T18:56:42.453Z,4.90
2022-08-26T18:59:11.545Z,4.55
2022-08-26T19:01:41.019Z,4.25
2022-08-26T19:04:09.769Z,4.32
2022-08-26T19:06:46.861Z,4.63
2022-08-26T19:09:14.742Z,4.38
2022-08-26T19:11:45.504Z,4.88
2022-08-26T19:14:15.899Z,4.90
2022-08-26T19:16:45.259Z,5.25
2022-08-26T19:19:12.569Z,4.65
2022-08-26T19:21:39.840Z,4.60
2022-08-26T19:24:11.538Z,4.70
2022-08-26T19:26:41.959Z,4.63
2022-08-26T19:29:09.958Z,5.15
2022-08-26T19:31:36.933Z,5.75
2022-08-26T19:34:07.339Z,5.30
2022-08-26T19:36:34.566Z,5.30
2022-08-26T19:39:01.862Z,6.05
2022-08-26T19:41:36.565Z,5.40
2022-08-26T19:44:07.303Z,5.57
2022-08-26T19:46:34.542Z,5.20
2022-08-26T19:49:01.546Z,5.47
2022-08-26T19:51:31.643Z,5.20
2022-08-26T19:54:00.208Z,5.60
2022-08-26T19:56:31.458Z,5.78
2022-08-26T19:58:58.179Z,5.55
2022-08-26T20:01:25.614Z,4.80
2022-08-26T20:03:52.511Z,4.72
2022-08-26T20:06:19.739Z,5.43
2022-08-26T20:08:50.831Z,4.63
2022-08-26T20:11:20.632Z,5.15
2022-08-26T20:13:48.870Z,5.30
2022-08-26T20:16:16.657Z,5.70
2022-08-26T20:18:44.789Z,4.85
2022-08-26T20:21:12.184Z,5.22
2022-08-26T20:23:39.099Z,4.75
2022-08-26T20:26:06.965Z,4.80
2022-08-26T20:28:33.748Z,5.30
2022-08-26T20:31:02.642Z,4.28
2022-08-26T20:33:29.641Z,5.82
2022-08-26T20:36:11.149Z,5.82
2022-08-26T20:38:37.894Z,6.38
2022-08-26T20:41:04.781Z,6.47
2022-08-26T20:43:31.596Z,6.65
2022-08-26T20:45:58.505Z,6.65
2022-08-26T20:48:26.835Z,6.90
2022-08-26T20:50:58.241Z,6.67
2022-08-26T20:53:25.794Z,6.68
2022-08-26T20:55:52.835Z,6.50
2022-08-26T20:58:19.833Z,6.93
2022-08-26T21:00:46.534Z,6.78
2022-08-26T21:03:13.392Z,6.65
2022-08-26T21:05:41.988Z,6.00
2022-08-26T21:08:09.099Z,7.47
2022-08-26T21:10:38.326Z,6.65
2022-08-26T21:13:06.067Z,6.85
2022-08-26T21:15:34.847Z,6.10
2022-08-26T21:18:01.633Z,6.35
2022-08-26T21:20:28.531Z,5.88
2022-08-26T21:22:56.925Z,6.78
2022-08-26T21:25:23.643Z,6.38
2022-08-26T21:27:50.425Z,6.00
2022-08-26T21:30:17.337Z,6.90
2022-08-26T21:32:44.091Z,6.55
2022-08-26T21:35:10.986Z,6.63
2022-08-26T21:37:37.728Z,6.25
2022-08-26T21:40:09.806Z,5.97
2022-08-26T21:42:36.603Z,6.00
2022-08-26T21:45:04.385Z,5.53
2022-08-26T21:47:31.099Z,6.10
2022-08-26T21:49:58.094Z,5.07
2022-08-26T21:52:25.028Z,5.43
2022-08-26T21:54:56.930Z,5.35
2022-08-26T21:57:26.026Z,4.90
2022-08-26T22:02:20.483Z,5.32
2022-08-26T22:04:49.009Z,5.95
2022-08-26T22:07:16.585Z,5.32
2022-08-26T22:09:44.506Z,6.50
2022-08-26T22:12:12.372Z,5.75
2022-08-26T22:14:40.468Z,5.90
2022-08-26T22:17:07.253Z,6.47
2022-08-26T22:19:34.161Z,6.30
2022-08-26T22:22:12.760Z,6.68
2022-08-26T22:24:39.742Z,5.50
2022-08-26T22:27:06.665Z,6.85
2022-08-26T22:29:33.512Z,6.05
2022-08-26T22:32:01.914Z,6.25
2022-08-26T22:34:28.620Z,6.55
2022-08-26T22:36:55.449Z,5.95
2022-08-26T22:39:25.398Z,6.10
2022-08-26T22:41:53.402Z,5.53
2022-08-26T22:44:21.044Z,6.03
2022-08-26T22:46:49.046Z,6.40
2022-08-26T22:49:17.644Z,6.72
2022-08-26T22:51:45.692Z,6.20
2022-08-26T22:54:12.587Z,6.45
2022-08-26T22:56:39.678Z,5.80
2022-08-26T22:59:07.329Z,5.97
2022-08-26T23:01:36.076Z,6.35
2022-08-26T23:04:03.879Z,6.13
2022-08-26T23:06:32.068Z,5.78
2022-08-26T23:08:58.870Z,5.60
2022-08-26T23:11:25.618Z,5.85
2022-08-26T23:13:52.405Z,5.65
2022-08-26T23:16:19.272Z,6.38
2022-08-26T23:18:45.949Z,6.20
2022-08-26T23:21:12.806Z,6.25
2022-08-26T23:23:41.020Z,6.50
2022-08-26T23:26:08.552Z,6.63
2022-08-26T23:28:36.215Z,6.95
2022-08-26T23:31:04.020Z,5.40
2022-08-26T23:33:30.795Z,6.20
2022-08-26T23:35:57.556Z,7.18
2022-08-26T23:38:24.331Z,6.40
2022-08-26T23:40:52.530Z,6.50
2022-08-26T23:43:19.240Z,6.53
2022-08-26T23:45:45.919Z,6.60
2022-08-26T23:48:12.719Z,5.80
2022-08-26T23:50:39.443Z,6.55
2022-08-26T23:53:06.109Z,7.47
2022-08-26T23:55:34.905Z,7.28
2022-08-26T23:58:03.284Z,6.50
